sensor_id;sensor_type;location;lat;lon;timestamp;P1;durP1;ratioP1;P2;durP2;ratioP2
77022;SDS011;65952;51.440;-2.054;2023-06-14T00:00:35;7.93;;;4.90;;
77022;SDS011;65952;51.440;-2.054;2023-06-14T00:03:04;9.27;;;5.13;;
77022;SDS011;65952;51.440;-2.054;2023-06-14T00:05:29;10.60;;;5.68;;
77022;SDS011;65952;51.440;-2.054;2023-06-14T00:07:58;10.77;;;5.72;;
77022;SDS011;65952;51.440;-2.054;2023-06-14T00:10:25;8.32;;;5.28;;
77022;SDS011;65952;51.440;-2.054;2023-06-14T00:12:55;9.93;;;5.50;;
77022;SDS011;65952;51.440;-2.054;2023-06-14T00:15:21;10.05;;;5.75;;
77022;SDS011;65952;51.440;-2.054;2023-06-14T00:17:46;10.75;;;6.30;;
77022;SDS011;65952;51.440;-2.054;2023-06-14T00:20:12;10.68;;;6.40;;
77022;SDS011;65952;51.440;-2.054;2023-06-14T00:22:37;10.18;;;5.80;;
77022;SDS011;65952;51.440;-2.054;2023-06-14T00:25:03;8.85;;;5.70;;
77022;SDS011;65952;51.440;-2.054;2023-06-14T00:27:30;10.43;;;5.95;;
77022;SDS011;65952;51.440;-2.054;2023-06-14T00:29:55;10.13;;;6.25;;
77022;SDS011;65952;51.440;-2.054;2023-06-14T00:32:23;9.05;;;6.47;;
77022;SDS011;65952;51.440;-2.054;2023-06-14T00:34:50;9.82;;;6.20;;
77022;SDS011;65952;51.440;-2.054;2023-06-14T00:37:16;10.07;;;6.40;;
77022;SDS011;65952;51.440;-2.054;2023-06-14T00:39:41;13.23;;;6.30;;
77022;SDS011;65952;51.440;-2.054;2023-06-14T00:42:07;8.73;;;6.10;;
77022;SDS011;65952;51.440;-2.054;2023-06-14T00:44:32;10.20;;;6.00;;
77022;SDS011;65952;51.440;-2.054;2023-06-14T00:46:57;9.77;;;6.22;;
77022;SDS011;65952;51.440;-2.054;2023-06-14T00:49:23;12.70;;;6.47;;
77022;SDS011;65952;51.440;-2.054;2023-06-14T00:51:49;13.35;;;8.10;;
77022;SDS011;65952;51.440;-2.054;2023-06-14T00:54:15;9.95;;;6.07;;
77022;SDS011;65952;51.440;-2.054;2023-06-14T00:56:40;9.75;;;6.30;;
77022;SDS011;65952;51.440;-2.054;2023-06-14T00:59:08;12.15;;;6.22;;
77022;SDS011;65952;51.440;-2.054;2023-06-14T01:01:36;9.13;;;5.85;;
77022;SDS011;65952;51.440;-2.054;2023-06-14T01:04:02;9.95;;;6.03;;
77022;SDS011;65952;51.440;-2.054;2023-06-14T01:09:43;10.43;;;6.22;;
77022;SDS011;65952;51.440;-2.054;2023-06-14T01:14:55;9.10;;;5.63;;
77022;SDS011;65952;51.440;-2.054;2023-06-14T01:17:22;13.38;;;6.15;;
77022;SDS011;65952;51.440;-2.054;2023-06-14T01:19:48;10.63;;;5.60;;
77022;SDS011;65952;51.440;-2.054;2023-06-14T01:22:23;9.95;;;5.97;;
77022;SDS011;65952;51.440;-2.054;2023-06-14T01:24:51;10.57;;;5.70;;
77022;SDS011;65952;51.440;-2.054;2023-06-14T01:27:20;9.55;;;5.70;;
77022;SDS011;65952;51.440;-2.054;2023-06-14T01:29:48;8.80;;;5.68;;
77022;SDS011;65952;51.440;-2.054;2023-06-14T01:32:16;9.63;;;6.00;;
77022;SDS011;65952;51.440;-2.054;2023-06-14T01:34:43;9.90;;;6.30;;
77022;SDS011;65952;51.440;-2.054;2023-06-14T01:37:09;10.57;;;6.70;;
77022;SDS011;65952;51.440;-2.054;2023-06-14T01:39:36;9.88;;;6.38;;
77022;SDS011;65952;51.440;-2.054;2023-06-14T01:42:02;9.43;;;6.38;;
77022;SDS011;65952;51.440;-2.054;2023-06-14T01:44:29;9.95;;;6.30;;
77022;SDS011;65952;51.440;-2.054;2023-06-14T01:46:56;11.88;;;6.35;;
77022;SDS011;65952;51.440;-2.054;2023-06-14T01:49:22;9.23;;;5.88;;
77022;SDS011;65952;51.440;-2.054;2023-06-14T01:51:48;10.63;;;6.25;;
77022;SDS011;65952;51.440;-2.054;2023-06-14T01:54:13;13.30;;;5.97;;
77022;SDS011;65952;51.440;-2.054;2023-06-14T01:56:38;8.32;;;5.70;;
77022;SDS011;65952;51.440;-2.054;2023-06-14T01:59:04;9.68;;;5.88;;
77022;SDS011;65952;51.440;-2.054;2023-06-14T02:01:29;9.45;;;5.88;;
77022;SDS011;65952;51.440;-2.054;2023-06-14T02:03:55;10.18;;;6.10;;
77022;SDS011;65952;51.440;-2.054;2023-06-14T02:06:21;9.85;;;6.05;;
77022;SDS011;65952;51.440;-2.054;2023-06-14T02:08:46;9.95;;;6.78;;
77022;SDS011;65952;51.440;-2.054;2023-06-14T02:11:12;9.88;;;5.65;;
77022;SDS011;65952;51.440;-2.054;2023-06-14T02:13:37;8.63;;;4.90;;
77022;SDS011;65952;51.440;-2.054;2023-06-14T02:16:02;8.93;;;5.10;;
77022;SDS011;65952;51.440;-2.054;2023-06-14T02:18:28;8.63;;;5.38;;
77022;SDS011;65952;51.440;-2.054;2023-06-14T02:20:53;8.68;;;4.88;;
77022;SDS011;65952;51.440;-2.054;2023-06-14T02:23:19;8.65;;;5.28;;
77022;SDS011;65952;51.440;-2.054;2023-06-14T02:25:45;10.05;;;4.95;;
77022;SDS011;65952;51.440;-2.054;2023-06-14T02:28:11;8.27;;;4.63;;
77022;SDS011;65952;51.440;-2.054;2023-06-14T02:30:36;8.38;;;5.00;;
77022;SDS011;65952;51.440;-2.054;2023-06-14T02:33:02;9.23;;;4.90;;
77022;SDS011;65952;51.440;-2.054;2023-06-14T02:35:28;8.30;;;4.93;;
77022;SDS011;65952;51.440;-2.054;2023-06-14T02:37:53;10.35;;;5.00;;
77022;SDS011;65952;51.440;-2.054;2023-06-14T02:40:19;9.05;;;4.95;;
77022;SDS011;65952;51.440;-2.054;2023-06-14T02:42:45;10.85;;;4.78;;
77022;SDS011;65952;51.440;-2.054;2023-06-14T02:45:11;8.55;;;4.47;;
77022;SDS011;65952;51.440;-2.054;2023-06-14T02:47:36;9.50;;;4.18;;
77022;SDS011;65952;51.440;-2.054;2023-06-14T02:50:02;9.73;;;4.80;;
77022;SDS011;65952;51.440;-2.054;2023-06-14T02:52:27;8.82;;;5.15;;
77022;SDS011;65952;51.440;-2.054;2023-06-14T07:18:33;6.03;;;3.10;;
77022;SDS011;65952;51.440;-2.054;2023-06-14T07:20:59;9.43;;;3.50;;
77022;SDS011;65952;51.440;-2.054;2023-06-14T07:23:25;9.50;;;3.47;;
77022;SDS011;65952;51.440;-2.054;2023-06-14T07:25:50;9.65;;;3.47;;
77022;SDS011;65952;51.440;-2.054;2023-06-14T07:28:16;8.98;;;3.40;;
77022;SDS011;65952;51.440;-2.054;2023-06-14T07:30:43;8.50;;;3.30;;
77022;SDS011;65952;51.440;-2.054;2023-06-14T07:33:08;13.18;;;3.78;;
77022;SDS011;65952;51.440;-2.054;2023-06-14T07:35:35;10.18;;;3.83;;
77022;SDS011;65952;51.440;-2.054;2023-06-14T07:38:00;6.38;;;3.22;;
77022;SDS011;65952;51.440;-2.054;2023-06-14T07:40:26;9.80;;;3.15;;
77022;SDS011;65952;51.440;-2.054;2023-06-14T07:42:51;7.55;;;3.08;;
77022;SDS011;65952;51.440;-2.054;2023-06-14T07:45:19;7.22;;;3.00;;
77022;SDS011;65952;51.440;-2.054;2023-06-14T07:47:44;8.25;;;3.30;;
77022;SDS011;65952;51.440;-2.054;2023-06-14T07:50:10;7.95;;;3.00;;
77022;SDS011;65952;51.440;-2.054;2023-06-14T07:52:35;7.88;;;3.20;;
77022;SDS011;65952;51.440;-2.054;2023-06-14T07:55:01;6.10;;;2.83;;
77022;SDS011;65952;51.440;-2.054;2023-06-14T07:57:26;7.75;;;3.35;;
77022;SDS011;65952;51.440;-2.054;2023-06-14T07:59:52;6.30;;;3.20;;
77022;SDS011;65952;51.440;-2.054;2023-06-14T08:02:17;7.25;;;3.15;;
77022;SDS011;65952;51.440;-2.054;2023-06-14T08:04:43;6.00;;;3.00;;
77022;SDS011;65952;51.440;-2.054;2023-06-14T08:07:08;5.43;;;2.97;;
77022;SDS011;65952;51.440;-2.054;2023-06-14T08:09:35;9.43;;;3.22;;
77022;SDS011;65952;51.440;-2.054;2023-06-14T08:12:04;9.13;;;3.30;;
77022;SDS011;65952;51.440;-2.054;2023-06-14T08:14:32;8.35;;;2.85;;
77022;SDS011;65952;51.440;-2.054;2023-06-14T08:16:58;5.80;;;3.00;;
77022;SDS011;65952;51.440;-2.054;2023-06-14T08:19:24;10.77;;;3.05;;
77022;SDS011;65952;51.440;-2.054;2023-06-14T08:21:50;6.97;;;2.90;;
77022;SDS011;65952;51.440;-2.054;2023-06-14T08:24:15;8.50;;;3.17;;
77022;SDS011;65952;51.440;-2.054;2023-06-14T08:26:41;9.75;;;3.20;;
77022;SDS011;65952;51.440;-2.054;2023-06-14T08:29:06;7.97;;;2.75;;
77022;SDS011;65952;51.440;-2.054;2023-06-14T08:31:32;6.32;;;2.45;;
77022;SDS011;65952;51.440;-2.054;2023-06-14T08:33:58;10.88;;;2.90;;
77022;SDS011;65952;51.440;-2.054;2023-06-14T08:36:23;6.93;;;3.00;;
77022;SDS011;65952;51.440;-2.054;2023-06-14T08:38:49;8.70;;;3.17;;
77022;SDS011;65952;51.440;-2.054;2023-06-14T08:41:16;6.20;;;2.75;;
77022;SDS011;65952;51.440;-2.054;2023-06-14T08:43:47;6.15;;;2.88;;
77022;SDS011;65952;51.440;-2.054;2023-06-14T08:46:12;6.53;;;3.05;;
77022;SDS011;65952;51.440;-2.054;2023-06-14T08:48:45;7.30;;;3.03;;
77022;SDS011;65952;51.440;-2.054;2023-06-14T08:51:11;6.45;;;2.90;;
77022;SDS011;65952;51.440;-2.054;2023-06-14T08:53:39;7.75;;;3.35;;
77022;SDS011;65952;51.440;-2.054;2023-06-14T08:56:07;6.68;;;2.88;;
77022;SDS011;65952;51.440;-2.054;2023-06-14T08:58:44;6.80;;;2.70;;
77022;SDS011;65952;51.440;-2.054;2023-06-14T09:01:13;7.18;;;2.67;;
77022;SDS011;65952;51.440;-2.054;2023-06-14T09:03:42;7.97;;;3.20;;
77022;SDS011;65952;51.440;-2.054;2023-06-14T09:06:09;6.85;;;2.80;;
77022;SDS011;65952;51.440;-2.054;2023-06-14T09:08:47;8.20;;;2.70;;
77022;SDS011;65952;51.440;-2.054;2023-06-14T09:11:15;5.07;;;2.65;;
77022;SDS011;65952;51.440;-2.054;2023-06-14T09:13:43;7.25;;;2.83;;
77022;SDS011;65952;51.440;-2.054;2023-06-14T09:16:10;6.82;;;2.80;;
77022;SDS011;65952;51.440;-2.054;2023-06-14T09:18:37;7.00;;;2.70;;
77022;SDS011;65952;51.440;-2.054;2023-06-14T09:21:05;8.23;;;2.88;;
77022;SDS011;65952;51.440;-2.054;2023-06-14T09:23:42;6.75;;;2.90;;
77022;SDS011;65952;51.440;-2.054;2023-06-14T09:26:10;6.40;;;2.70;;
77022;SDS011;65952;51.440;-2.054;2023-06-14T09:28:41;7.43;;;3.03;;
77022;SDS011;65952;51.440;-2.054;2023-06-14T09:31:13;6.63;;;3.03;;
77022;SDS011;65952;51.440;-2.054;2023-06-14T09:33:43;7.47;;;2.88;;
77022;SDS011;65952;51.440;-2.054;2023-06-14T09:36:14;6.28;;;2.65;;
77022;SDS011;65952;51.440;-2.054;2023-06-14T09:38:41;6.50;;;2.85;;
77022;SDS011;65952;51.440;-2.054;2023-06-14T09:41:07;6.05;;;2.88;;
77022;SDS011;65952;51.440;-2.054;2023-06-14T09:43:33;6.63;;;3.13;;
77022;SDS011;65952;51.440;-2.054;2023-06-14T09:46:00;9.07;;;2.60;;
77022;SDS011;65952;51.440;-2.054;2023-06-14T09:48:26;7.60;;;2.65;;
77022;SDS011;65952;51.440;-2.054;2023-06-14T09:50:52;4.97;;;2.70;;
77022;SDS011;65952;51.440;-2.054;2023-06-14T09:53:23;7.80;;;3.10;;
77022;SDS011;65952;51.440;-2.054;2023-06-14T09:55:50;5.97;;;2.72;;
77022;SDS011;65952;51.440;-2.054;2023-06-14T09:58:17;5.65;;;2.85;;
77022;SDS011;65952;51.440;-2.054;2023-06-14T10:00:45;5.50;;;2.80;;
77022;SDS011;65952;51.440;-2.054;2023-06-14T10:03:16;6.35;;;2.75;;
77022;SDS011;65952;51.440;-2.054;2023-06-14T10:05:49;6.72;;;2.95;;
77022;SDS011;65952;51.440;-2.054;2023-06-14T10:08:16;6.25;;;2.80;;
77022;SDS011;65952;51.440;-2.054;2023-06-14T10:10:44;6.35;;;2.80;;
77022;SDS011;65952;51.440;-2.054;2023-06-14T10:13:10;6.20;;;3.20;;
77022;SDS011;65952;51.440;-2.054;2023-06-14T10:23:46;5.40;;;2.63;;
77022;SDS011;65952;51.440;-2.054;2023-06-14T10:26:21;7.32;;;3.08;;
77022;SDS011;65952;51.440;-2.054;2023-06-14T10:28:55;5.43;;;3.17;;
77022;SDS011;65952;51.440;-2.054;2023-06-14T10:31:23;8.48;;;2.80;;
77022;SDS011;65952;51.440;-2.054;2023-06-14T10:34:04;7.97;;;3.10;;
77022;SDS011;65952;51.440;-2.054;2023-06-14T10:36:30;6.85;;;3.25;;
77022;SDS011;65952;51.440;-2.054;2023-06-14T10:39:00;8.00;;;2.83;;
77022;SDS011;65952;51.440;-2.054;2023-06-14T10:41:30;7.18;;;2.80;;
77022;SDS011;65952;51.440;-2.054;2023-06-14T10:46:38;7.85;;;3.15;;
77022;SDS011;65952;51.440;-2.054;2023-06-14T10:49:03;5.47;;;2.97;;
77022;SDS011;65952;51.440;-2.054;2023-06-14T10:51:31;6.90;;;2.90;;
77022;SDS011;65952;51.440;-2.054;2023-06-14T10:54:20;7.25;;;3.00;;
77022;SDS011;65952;51.440;-2.054;2023-06-14T10:56:46;6.93;;;3.00;;
77022;SDS011;65952;51.440;-2.054;2023-06-14T10:59:13;6.80;;;2.90;;
77022;SDS011;65952;51.440;-2.054;2023-06-14T11:04:49;6.15;;;3.10;;
77022;SDS011;65952;51.440;-2.054;2023-06-14T11:13:05;5.57;;;3.30;;
77022;SDS011;65952;51.440;-2.054;2023-06-14T11:15:32;8.30;;;3.03;;
77022;SDS011;65952;51.440;-2.054;2023-06-14T11:18:05;7.30;;;3.00;;
77022;SDS011;65952;51.440;-2.054;2023-06-14T11:20:36;6.00;;;3.08;;
77022;SDS011;65952;51.440;-2.054;2023-06-14T11:23:02;6.97;;;3.20;;
77022;SDS011;65952;51.440;-2.054;2023-06-14T11:25:29;6.57;;;3.20;;
77022;SDS011;65952;51.440;-2.054;2023-06-14T11:27:54;10.55;;;3.17;;
77022;SDS011;65952;51.440;-2.054;2023-06-14T11:30:20;7.18;;;3.20;;
77022;SDS011;65952;51.440;-2.054;2023-06-14T11:32:50;7.35;;;3.08;;
77022;SDS011;65952;51.440;-2.054;2023-06-14T11:35:17;5.95;;;3.03;;
77022;SDS011;65952;51.440;-2.054;2023-06-14T11:37:43;5.55;;;3.03;;
77022;SDS011;65952;51.440;-2.054;2023-06-14T11:40:10;7.47;;;3.42;;
77022;SDS011;65952;51.440;-2.054;2023-06-14T11:42:38;9.40;;;3.30;;
77022;SDS011;65952;51.440;-2.054;2023-06-14T11:45:07;7.00;;;3.47;;
77022;SDS011;65952;51.440;-2.054;2023-06-14T11:47:38;7.28;;;3.45;;
77022;SDS011;65952;51.440;-2.054;2023-06-14T11:50:08;5.50;;;3.20;;
77022;SDS011;65952;51.440;-2.054;2023-06-14T11:52:35;7.80;;;3.60;;
77022;SDS011;65952;51.440;-2.054;2023-06-14T11:55:03;9.85;;;4.05;;
77022;SDS011;65952;51.440;-2.054;2023-06-14T11:57:35;5.40;;;3.30;;
77022;SDS011;65952;51.440;-2.054;2023-06-14T12:00:04;8.05;;;3.25;;
77022;SDS011;65952;51.440;-2.054;2023-06-14T12:02:37;8.60;;;4.20;;
77022;SDS011;65952;51.440;-2.054;2023-06-14T12:05:06;8.25;;;3.78;;
77022;SDS011;65952;51.440;-2.054;2023-06-14T12:07:38;7.60;;;3.92;;
77022;SDS011;65952;51.440;-2.054;2023-06-14T12:10:05;7.20;;;3.65;;
77022;SDS011;65952;51.440;-2.054;2023-06-14T12:12:34;7.28;;;3.50;;
77022;SDS011;65952;51.440;-2.054;2023-06-14T12:15:06;5.47;;;3.63;;
77022;SDS011;65952;51.440;-2.054;2023-06-14T12:17:35;8.23;;;3.90;;
77022;SDS011;65952;51.440;-2.054;2023-06-14T12:20:08;6.93;;;3.47;;
77022;SDS011;65952;51.440;-2.054;2023-06-14T12:22:36;10.35;;;3.70;;
77022;SDS011;65952;51.440;-2.054;2023-06-14T12:25:02;7.22;;;3.50;;
77022;SDS011;65952;51.440;-2.054;2023-06-14T12:27:28;6.30;;;3.83;;
77022;SDS011;65952;51.440;-2.054;2023-06-14T12:30:01;9.45;;;3.95;;
77022;SDS011;65952;51.440;-2.054;2023-06-14T12:32:27;6.93;;;3.90;;
77022;SDS011;65952;51.440;-2.054;2023-06-14T12:34:53;9.00;;;4.32;;
77022;SDS011;65952;51.440;-2.054;2023-06-14T12:37:21;7.65;;;4.43;;
77022;SDS011;65952;51.440;-2.054;2023-06-14T12:39:47;7.47;;;4.30;;
77022;SDS011;65952;51.440;-2.054;2023-06-14T12:42:12;8.93;;;4.30;;
77022;SDS011;65952;51.440;-2.054;2023-06-14T12:44:39;9.23;;;4.28;;
77022;SDS011;65952;51.440;-2.054;2023-06-14T12:47:06;8.27;;;4.50;;
77022;SDS011;65952;51.440;-2.054;2023-06-14T12:49:32;7.97;;;4.30;;
77022;SDS011;65952;51.440;-2.054;2023-06-14T12:51:58;8.73;;;4.65;;
77022;SDS011;65952;51.440;-2.054;2023-06-14T12:54:23;8.65;;;4.40;;
77022;SDS011;65952;51.440;-2.054;2023-06-14T12:56:50;10.30;;;4.40;;
77022;SDS011;65952;51.440;-2.054;2023-06-14T12:59:20;8.50;;;4.50;;
77022;SDS011;65952;51.440;-2.054;2023-06-14T13:01:45;8.43;;;4.60;;
77022;SDS011;65952;51.440;-2.054;2023-06-14T13:04:12;8.63;;;4.80;;
77022;SDS011;65952;51.440;-2.054;2023-06-14T13:06:38;11.63;;;5.40;;
77022;SDS011;65952;51.440;-2.054;2023-06-14T13:09:04;11.40;;;4.93;;
77022;SDS011;65952;51.440;-2.054;2023-06-14T13:11:30;9.30;;;4.65;;
77022;SDS011;65952;51.440;-2.054;2023-06-14T13:13:56;7.63;;;4.43;;
77022;SDS011;65952;51.440;-2.054;2023-06-14T13:16:21;12.25;;;4.32;;
77022;SDS011;65952;51.440;-2.054;2023-06-14T13:18:47;7.10;;;4.38;;
77022;SDS011;65952;51.440;-2.054;2023-06-14T13:21:12;10.38;;;4.63;;
77022;SDS011;65952;51.440;-2.054;2023-06-14T13:23:37;9.02;;;4.90;;
77022;SDS011;65952;51.440;-2.054;2023-06-14T13:26:03;8.32;;;4.65;;
77022;SDS011;65952;51.440;-2.054;2023-06-14T13:28:28;9.43;;;4.70;;
77022;SDS011;65952;51.440;-2.054;2023-06-14T13:30:54;9.57;;;4.85;;
77022;SDS011;65952;51.440;-2.054;2023-06-14T13:33:20;7.97;;;4.72;;
77022;SDS011;65952;51.440;-2.054;2023-06-14T13:35:46;9.80;;;5.03;;
77022;SDS011;65952;51.440;-2.054;2023-06-14T13:38:11;7.30;;;4.32;;
77022;SDS011;65952;51.440;-2.054;2023-06-14T13:40:37;8.52;;;5.00;;
77022;SDS011;65952;51.440;-2.054;2023-06-14T13:43:02;8.25;;;4.88;;
77022;SDS011;65952;51.440;-2.054;2023-06-14T13:45:28;9.13;;;5.00;;
77022;SDS011;65952;51.440;-2.054;2023-06-14T13:47:53;9.00;;;5.00;;
77022;SDS011;65952;51.440;-2.054;2023-06-14T13:50:19;9.15;;;4.75;;
77022;SDS011;65952;51.440;-2.054;2023-06-14T13:52:45;10.40;;;5.00;;
77022;SDS011;65952;51.440;-2.054;2023-06-14T13:55:11;10.23;;;5.22;;
77022;SDS011;65952;51.440;-2.054;2023-06-14T13:57:36;7.57;;;4.88;;
77022;SDS011;65952;51.440;-2.054;2023-06-14T14:00:02;15.65;;;5.40;;
77022;SDS011;65952;51.440;-2.054;2023-06-14T14:02:28;9.65;;;5.38;;
77022;SDS011;65952;51.440;-2.054;2023-06-14T14:04:55;7.55;;;4.75;;
77022;SDS011;65952;51.440;-2.054;2023-06-14T14:07:20;8.95;;;5.20;;
77022;SDS011;65952;51.440;-2.054;2023-06-14T14:09:47;7.13;;;4.65;;
77022;SDS011;65952;51.440;-2.054;2023-06-14T14:12:12;8.77;;;4.85;;
77022;SDS011;65952;51.440;-2.054;2023-06-14T14:14:39;9.25;;;5.25;;
77022;SDS011;65952;51.440;-2.054;2023-06-14T14:17:05;7.90;;;4.85;;
77022;SDS011;65952;51.440;-2.054;2023-06-14T14:19:31;8.70;;;5.18;;
77022;SDS011;65952;51.440;-2.054;2023-06-14T14:21:57;10.15;;;5.20;;
77022;SDS011;65952;51.440;-2.054;2023-06-14T14:24:23;9.25;;;5.20;;
77022;SDS011;65952;51.440;-2.054;2023-06-14T14:26:48;8.00;;;5.32;;
77022;SDS011;65952;51.440;-2.054;2023-06-14T14:29:14;8.40;;;5.28;;
77022;SDS011;65952;51.440;-2.054;2023-06-14T14:31:40;11.98;;;5.22;;
77022;SDS011;65952;51.440;-2.054;2023-06-14T14:34:06;11.25;;;5.57;;
77022;SDS011;65952;51.440;-2.054;2023-06-14T14:36:31;10.07;;;5.45;;
77022;SDS011;65952;51.440;-2.054;2023-06-14T14:38:59;9.63;;;5.25;;
77022;SDS011;65952;51.440;-2.054;2023-06-14T14:41:25;10.45;;;5.40;;
77022;SDS011;65952;51.440;-2.054;2023-06-14T14:43:50;9.90;;;5.68;;
77022;SDS011;65952;51.440;-2.054;2023-06-14T14:46:16;10.23;;;5.22;;
77022;SDS011;65952;51.440;-2.054;2023-06-14T14:48:41;10.32;;;4.95;;
77022;SDS011;65952;51.440;-2.054;2023-06-14T14:51:07;9.02;;;5.05;;
77022;SDS011;65952;51.440;-2.054;2023-06-14T14:53:33;8.50;;;5.40;;
77022;SDS011;65952;51.440;-2.054;2023-06-14T14:55:58;9.10;;;4.88;;
77022;SDS011;65952;51.440;-2.054;2023-06-14T14:58:23;9.55;;;5.10;;
77022;SDS011;65952;51.440;-2.054;2023-06-14T15:00:49;8.95;;;5.40;;
77022;SDS011;65952;51.440;-2.054;2023-06-14T15:03:14;12.43;;;5.25;;
77022;SDS011;65952;51.440;-2.054;2023-06-14T15:05:40;8.77;;;5.57;;
77022;SDS011;65952;51.440;-2.054;2023-06-14T15:08:06;9.35;;;5.20;;
77022;SDS011;65952;51.440;-2.054;2023-06-14T15:13:05;10.27;;;5.43;;
77022;SDS011;65952;51.440;-2.054;2023-06-14T15:15:31;11.60;;;5.43;;
77022;SDS011;65952;51.440;-2.054;2023-06-14T15:17:56;10.50;;;5.28;;
77022;SDS011;65952;51.440;-2.054;2023-06-14T15:20:22;9.02;;;5.20;;
77022;SDS011;65952;51.440;-2.054;2023-06-14T15:22:47;8.25;;;5.65;;
77022;SDS011;65952;51.440;-2.054;2023-06-14T15:25:13;8.75;;;5.70;;
77022;SDS011;65952;51.440;-2.054;2023-06-14T15:27:38;9.45;;;5.35;;
77022;SDS011;65952;51.440;-2.054;2023-06-14T15:30:04;8.95;;;5.57;;
77022;SDS011;65952;51.440;-2.054;2023-06-14T15:32:30;11.00;;;5.63;;
77022;SDS011;65952;51.440;-2.054;2023-06-14T15:34:56;9.82;;;5.38;;
77022;SDS011;65952;51.440;-2.054;2023-06-14T15:37:21;9.93;;;5.55;;
77022;SDS011;65952;51.440;-2.054;2023-06-14T15:39:47;9.65;;;5.43;;
77022;SDS011;65952;51.440;-2.054;2023-06-14T15:42:12;9.55;;;5.63;;
77022;SDS011;65952;51.440;-2.054;2023-06-14T15:44:38;7.72;;;5.40;;
77022;SDS011;65952;51.440;-2.054;2023-06-14T15:47:03;7.97;;;5.55;;
77022;SDS011;65952;51.440;-2.054;2023-06-14T15:49:29;10.30;;;5.30;;
77022;SDS011;65952;51.440;-2.054;2023-06-14T15:51:55;11.45;;;5.80;;
77022;SDS011;65952;51.440;-2.054;2023-06-14T15:54:20;8.00;;;5.40;;
77022;SDS011;65952;51.440;-2.054;2023-06-14T15:56:45;8.75;;;5.32;;
77022;SDS011;65952;51.440;-2.054;2023-06-14T15:59:11;9.07;;;5.30;;
77022;SDS011;65952;51.440;-2.054;2023-06-14T16:01:36;9.75;;;5.78;;
77022;SDS011;65952;51.440;-2.054;2023-06-14T16:04:02;9.13;;;5.78;;
77022;SDS011;65952;51.440;-2.054;2023-06-14T16:06:27;8.18;;;5.90;;
77022;SDS011;65952;51.440;-2.054;2023-06-14T16:08:53;11.32;;;5.70;;
77022;SDS011;65952;51.440;-2.054;2023-06-14T16:11:18;8.05;;;5.28;;
77022;SDS011;65952;51.440;-2.054;2023-06-14T16:13:45;8.73;;;5.43;;
77022;SDS011;65952;51.440;-2.054;2023-06-14T16:16:10;7.10;;;4.97;;
77022;SDS011;65952;51.440;-2.054;2023-06-14T16:18:36;9.48;;;6.00;;
77022;SDS011;65952;51.440;-2.054;2023-06-14T16:21:01;10.95;;;5.63;;
77022;SDS011;65952;51.440;-2.054;2023-06-14T16:23:29;9.35;;;5.40;;
77022;SDS011;65952;51.440;-2.054;2023-06-14T16:25:54;10.05;;;5.40;;
77022;SDS011;65952;51.440;-2.054;2023-06-14T16:28:20;7.20;;;5.25;;
77022;SDS011;65952;51.440;-2.054;2023-06-14T16:30:45;7.80;;;5.35;;
77022;SDS011;65952;51.440;-2.054;2023-06-14T16:33:10;9.68;;;5.55;;
77022;SDS011;65952;51.440;-2.054;2023-06-14T16:35:36;9.38;;;5.55;;
77022;SDS011;65952;51.440;-2.054;2023-06-14T16:38:01;10.23;;;5.72;;
77022;SDS011;65952;51.440;-2.054;2023-06-14T16:40:27;7.90;;;5.43;;
77022;SDS011;65952;51.440;-2.054;2023-06-14T16:42:52;15.07;;;5.40;;
77022;SDS011;65952;51.440;-2.054;2023-06-14T16:45:18;12.85;;;5.72;;
77022;SDS011;65952;51.440;-2.054;2023-06-14T16:47:43;9.63;;;5.85;;
77022;SDS011;65952;51.440;-2.054;2023-06-14T16:50:09;8.18;;;5.22;;
77022;SDS011;65952;51.440;-2.054;2023-06-14T16:52:34;8.18;;;5.47;;
77022;SDS011;65952;51.440;-2.054;2023-06-14T16:55:00;8.38;;;5.18;;
77022;SDS011;65952;51.440;-2.054;2023-06-14T16:57:25;8.73;;;5.68;;
77022;SDS011;65952;51.440;-2.054;2023-06-14T16:59:51;7.50;;;5.38;;
77022;SDS011;65952;51.440;-2.054;2023-06-14T17:02:16;8.23;;;5.50;;
77022;SDS011;65952;51.440;-2.054;2023-06-14T17:04:42;8.43;;;5.60;;
77022;SDS011;65952;51.440;-2.054;2023-06-14T17:07:07;6.68;;;4.70;;
77022;SDS011;65952;51.440;-2.054;2023-06-14T17:09:33;8.55;;;5.28;;
77022;SDS011;65952;51.440;-2.054;2023-06-14T17:11:58;9.55;;;5.70;;
77022;SDS011;65952;51.440;-2.054;2023-06-14T17:14:24;10.48;;;5.75;;
77022;SDS011;65952;51.440;-2.054;2023-06-14T17:16:49;8.98;;;5.25;;
77022;SDS011;65952;51.440;-2.054;2023-06-14T17:19:15;15.43;;;5.97;;
77022;SDS011;65952;51.440;-2.054;2023-06-14T17:21:41;11.07;;;5.38;;
77022;SDS011;65952;51.440;-2.054;2023-06-14T17:24:11;9.75;;;5.75;;
77022;SDS011;65952;51.440;-2.054;2023-06-14T17:26:40;9.45;;;5.85;;
77022;SDS011;65952;51.440;-2.054;2023-06-14T17:29:05;10.05;;;5.85;;
77022;SDS011;65952;51.440;-2.054;2023-06-14T17:31:30;10.30;;;5.82;;
77022;SDS011;65952;51.440;-2.054;2023-06-14T17:33:56;9.10;;;5.68;;
77022;SDS011;65952;51.440;-2.054;2023-06-14T17:36:21;10.82;;;5.82;;
77022;SDS011;65952;51.440;-2.054;2023-06-14T17:38:47;10.48;;;5.75;;
77022;SDS011;65952;51.440;-2.054;2023-06-14T17:41:12;8.18;;;5.47;;
77022;SDS011;65952;51.440;-2.054;2023-06-14T17:43:39;7.95;;;5.70;;
77022;SDS011;65952;51.440;-2.054;2023-06-14T17:46:05;8.88;;;5.80;;
77022;SDS011;65952;51.440;-2.054;2023-06-14T17:48:31;7.80;;;5.00;;
77022;SDS011;65952;51.440;-2.054;2023-06-14T17:51:01;9.27;;;6.10;;
77022;SDS011;65952;51.440;-2.054;2023-06-14T17:53:28;9.35;;;5.68;;
77022;SDS011;65952;51.440;-2.054;2023-06-14T17:55:53;7.43;;;5.43;;
77022;SDS011;65952;51.440;-2.054;2023-06-14T17:58:20;9.18;;;5.70;;
77022;SDS011;65952;51.440;-2.054;2023-06-14T18:00:46;9.82;;;6.10;;
77022;SDS011;65952;51.440;-2.054;2023-06-14T18:03:12;9.13;;;5.30;;
77022;SDS011;65952;51.440;-2.054;2023-06-14T18:05:37;8.55;;;5.22;;
77022;SDS011;65952;51.440;-2.054;2023-06-14T18:08:04;9.27;;;5.53;;
77022;SDS011;65952;51.440;-2.054;2023-06-14T18:10:31;8.93;;;5.55;;
77022;SDS011;65952;51.440;-2.054;2023-06-14T18:12:56;11.00;;;6.03;;
77022;SDS011;65952;51.440;-2.054;2023-06-14T18:15:22;8.82;;;5.50;;
77022;SDS011;65952;51.440;-2.054;2023-06-14T18:17:47;8.15;;;5.57;;
77022;SDS011;65952;51.440;-2.054;2023-06-14T18:20:15;11.30;;;5.70;;
77022;SDS011;65952;51.440;-2.054;2023-06-14T18:22:42;10.50;;;5.93;;
77022;SDS011;65952;51.440;-2.054;2023-06-14T18:25:07;10.98;;;6.65;;
77022;SDS011;65952;51.440;-2.054;2023-06-14T18:27:33;8.55;;;5.40;;
77022;SDS011;65952;51.440;-2.054;2023-06-14T18:29:58;11.00;;;5.95;;
77022;SDS011;65952;51.440;-2.054;2023-06-14T18:32:24;9.00;;;6.10;;
77022;SDS011;65952;51.440;-2.054;2023-06-14T18:34:49;9.65;;;5.78;;
77022;SDS011;65952;51.440;-2.054;2023-06-14T18:37:15;7.50;;;5.30;;
77022;SDS011;65952;51.440;-2.054;2023-06-14T18:39:41;9.82;;;5.65;;
77022;SDS011;65952;51.440;-2.054;2023-06-14T18:42:06;8.55;;;5.25;;
77022;SDS011;65952;51.440;-2.054;2023-06-14T18:44:32;8.13;;;5.38;;
77022;SDS011;65952;51.440;-2.054;2023-06-14T18:46:58;9.27;;;5.38;;
77022;SDS011;65952;51.440;-2.054;2023-06-14T18:49:23;9.75;;;5.20;;
77022;SDS011;65952;51.440;-2.054;2023-06-14T18:51:48;11.10;;;6.00;;
77022;SDS011;65952;51.440;-2.054;2023-06-14T18:54:14;9.38;;;5.28;;
77022;SDS011;65952;51.440;-2.054;2023-06-14T18:56:39;8.02;;;5.25;;
77022;SDS011;65952;51.440;-2.054;2023-06-14T18:59:05;10.27;;;5.60;;
77022;SDS011;65952;51.440;-2.054;2023-06-14T19:01:30;8.95;;;5.10;;
77022;SDS011;65952;51.440;-2.054;2023-06-14T19:03:56;8.70;;;5.20;;
77022;SDS011;65952;51.440;-2.054;2023-06-14T19:06:21;8.63;;;5.78;;
77022;SDS011;65952;51.440;-2.054;2023-06-14T19:08:49;10.55;;;5.70;;
77022;SDS011;65952;51.440;-2.054;2023-06-14T19:11:15;13.23;;;5.82;;
77022;SDS011;65952;51.440;-2.054;2023-06-14T19:13:41;8.82;;;5.55;;
77022;SDS011;65952;51.440;-2.054;2023-06-14T19:16:06;10.77;;;5.80;;
77022;SDS011;65952;51.440;-2.054;2023-06-14T19:18:32;11.05;;;5.30;;